sensor_id;sensor_type;location;lat;lon;timestamp;P1;durP1;ratioP1;P2;durP2;ratioP2
70683;SDS011;58263;48.146;11.440;2023-03-04T00:00:52;51.20;;;22.97;;
70683;SDS011;58263;48.146;11.440;2023-03-04T00:03:17;47.30;;;21.33;;
70683;SDS011;58263;48.146;11.440;2023-03-04T00:05:42;50.60;;;21.50;;
70683;SDS011;58263;48.146;11.440;2023-03-04T00:08:08;55.00;;;21.13;;
70683;SDS011;58263;48.146;11.440;2023-03-04T00:10:33;48.40;;;20.90;;
70683;SDS011;58263;48.146;11.440;2023-03-04T00:12:58;46.93;;;21.10;;
70683;SDS011;58263;48.146;11.440;2023-03-04T00:15:24;52.33;;;22.37;;
70683;SDS011;58263;48.146;11.440;2023-03-04T00:17:49;43.15;;;19.88;;
70683;SDS011;58263;48.146;11.440;2023-03-04T00:20:14;49.87;;;21.87;;
70683;SDS011;58263;48.146;11.440;2023-03-04T00:22:40;48.27;;;20.77;;
70683;SDS011;58263;48.146;11.440;2023-03-04T00:25:05;50.50;;;20.87;;
70683;SDS011;58263;48.146;11.440;2023-03-04T00:27:31;44.03;;;19.65;;
70683;SDS011;58263;48.146;11.440;2023-03-04T00:29:56;44.33;;;20.03;;
70683;SDS011;58263;48.146;11.440;2023-03-04T00:32:21;40.40;;;18.13;;
70683;SDS011;58263;48.146;11.440;2023-03-04T00:34:47;42.30;;;19.13;;
70683;SDS011;58263;48.146;11.440;2023-03-04T00:37:12;47.78;;;20.92;;
70683;SDS011;58263;48.146;11.440;2023-03-04T00:39:38;46.38;;;20.80;;
70683;SDS011;58263;48.146;11.440;2023-03-04T00:42:03;48.57;;;21.27;;
70683;SDS011;58263;48.146;11.440;2023-03-04T00:44:28;47.53;;;19.30;;
70683;SDS011;58263;48.146;11.440;2023-03-04T00:46:54;44.17;;;20.10;;
70683;SDS011;58263;48.146;11.440;2023-03-04T00:49:19;51.87;;;20.40;;
70683;SDS011;58263;48.146;11.440;2023-03-04T00:51:45;39.83;;;19.10;;
70683;SDS011;58263;48.146;11.440;2023-03-04T00:54:10;42.97;;;19.20;;
70683;SDS011;58263;48.146;11.440;2023-03-04T00:56:35;42.37;;;18.73;;
70683;SDS011;58263;48.146;11.440;2023-03-04T00:59:01;48.20;;;21.45;;
70683;SDS011;58263;48.146;11.440;2023-03-04T01:01:26;40.07;;;18.63;;
70683;SDS011;58263;48.146;11.440;2023-03-04T01:03:51;44.97;;;18.73;;
70683;SDS011;58263;48.146;11.440;2023-03-04T01:06:17;42.10;;;18.67;;
70683;SDS011;58263;48.146;11.440;2023-03-04T01:08:42;42.37;;;18.93;;
70683;SDS011;58263;48.146;11.440;2023-03-04T01:11:07;40.50;;;19.17;;
70683;SDS011;58263;48.146;11.440;2023-03-04T01:13:33;42.88;;;19.02;;
70683;SDS011;58263;48.146;11.440;2023-03-04T01:15:58;41.67;;;18.00;;
70683;SDS011;58263;48.146;11.440;2023-03-04T01:18:24;43.03;;;18.58;;
70683;SDS011;58263;48.146;11.440;2023-03-04T01:20:49;46.47;;;20.17;;
70683;SDS011;58263;48.146;11.440;2023-03-04T01:23:15;36.17;;;17.47;;
70683;SDS011;58263;48.146;11.440;2023-03-04T01:25:40;40.67;;;18.15;;
70683;SDS011;58263;48.146;11.440;2023-03-04T01:28:05;41.87;;;19.00;;
70683;SDS011;58263;48.146;11.440;2023-03-04T01:30:31;39.47;;;18.80;;
70683;SDS011;58263;48.146;11.440;2023-03-04T01:32:56;43.95;;;19.00;;
70683;SDS011;58263;48.146;11.440;2023-03-04T01:35:22;40.17;;;18.35;;
70683;SDS011;58263;48.146;11.440;2023-03-04T01:37:47;44.23;;;19.50;;
70683;SDS011;58263;48.146;11.440;2023-03-04T01:40:12;37.00;;;17.80;;
70683;SDS011;58263;48.146;11.440;2023-03-04T01:42:38;41.50;;;18.40;;
70683;SDS011;58263;48.146;11.440;2023-03-04T01:45:04;38.30;;;18.15;;
70683;SDS011;58263;48.146;11.440;2023-03-04T01:47:31;42.30;;;18.25;;
70683;SDS011;58263;48.146;11.440;2023-03-04T01:49:58;38.90;;;17.95;;
70683;SDS011;58263;48.146;11.440;2023-03-04T01:52:27;38.03;;;18.45;;
70683;SDS011;58263;48.146;11.440;2023-03-04T01:54:52;44.10;;;17.95;;
70683;SDS011;58263;48.146;11.440;2023-03-04T01:57:19;38.80;;;18.20;;
70683;SDS011;58263;48.146;11.440;2023-03-04T02:00:10;38.35;;;17.17;;
70683;SDS011;58263;48.146;11.440;2023-03-04T02:02:41;36.17;;;17.35;;
70683;SDS011;58263;48.146;11.440;2023-03-04T02:05:07;40.05;;;17.75;;
70683;SDS011;58263;48.146;11.440;2023-03-04T02:07:33;38.20;;;17.42;;
70683;SDS011;58263;48.146;11.440;2023-03-04T02:09:58;35.08;;;17.55;;
70683;SDS011;58263;48.146;11.440;2023-03-04T02:12:24;42.63;;;18.77;;
70683;SDS011;58263;48.146;11.440;2023-03-04T02:14:49;35.33;;;16.87;;
70683;SDS011;58263;48.146;11.440;2023-03-04T02:17:14;36.20;;;16.83;;
70683;SDS011;58263;48.146;11.440;2023-03-04T02:19:46;39.57;;;18.73;;
70683;SDS011;58263;48.146;11.440;2023-03-04T02:22:17;39.15;;;18.60;;
70683;SDS011;58263;48.146;11.440;2023-03-04T02:24:44;39.97;;;17.53;;
70683;SDS011;58263;48.146;11.440;2023-03-04T02:27:16;39.65;;;17.98;;
70683;SDS011;58263;48.146;11.440;2023-03-04T02:29:42;38.50;;;18.98;;
70683;SDS011;58263;48.146;11.440;2023-03-04T02:32:09;35.87;;;17.07;;
70683;SDS011;58263;48.146;11.440;2023-03-04T02:34:43;38.33;;;18.63;;
70683;SDS011;58263;48.146;11.440;2023-03-04T02:37:11;41.35;;;18.63;;
70683;SDS011;58263;48.146;11.440;2023-03-04T02:39:40;41.30;;;18.00;;
70683;SDS011;58263;48.146;11.440;2023-03-04T02:42:08;37.30;;;18.40;;
70683;SDS011;58263;48.146;11.440;2023-03-04T02:44:34;38.70;;;18.40;;
70683;SDS011;58263;48.146;11.440;2023-03-04T02:47:02;45.45;;;19.33;;
70683;SDS011;58263;48.146;11.440;2023-03-04T02:49:29;37.00;;;18.60;;
70683;SDS011;58263;48.146;11.440;2023-03-04T02:52:00;39.65;;;17.00;;
70683;SDS011;58263;48.146;11.440;2023-03-04T02:54:28;35.55;;;16.00;;
70683;SDS011;58263;48.146;11.440;2023-03-04T02:56:55;38.08;;;17.92;;
70683;SDS011;58263;48.146;11.440;2023-03-04T02:59:25;37.13;;;17.17;;
70683;SDS011;58263;48.146;11.440;2023-03-04T03:01:51;36.78;;;16.60;;
70683;SDS011;58263;48.146;11.440;2023-03-04T03:04:17;35.33;;;17.00;;
70683;SDS011;58263;48.146;11.440;2023-03-04T03:06:44;44.63;;;19.75;;
70683;SDS011;58263;48.146;11.440;2023-03-04T03:09:09;39.92;;;18.05;;
70683;SDS011;58263;48.146;11.440;2023-03-04T03:11:35;43.28;;;19.58;;
70683;SDS011;58263;48.146;11.440;2023-03-04T03:14:00;39.90;;;18.03;;
70683;SDS011;58263;48.146;11.440;2023-03-04T03:16:26;38.38;;;17.77;;
70683;SDS011;58263;48.146;11.440;2023-03-04T03:18:51;45.53;;;17.27;;
70683;SDS011;58263;48.146;11.440;2023-03-04T03:21:17;37.87;;;17.13;;
70683;SDS011;58263;48.146;11.440;2023-03-04T03:23:43;39.40;;;17.83;;
70683;SDS011;58263;48.146;11.440;2023-03-04T03:26:08;41.63;;;18.05;;
70683;SDS011;58263;48.146;11.440;2023-03-04T03:28:34;42.95;;;18.67;;
70683;SDS011;58263;48.146;11.440;2023-03-04T03:33:28;41.17;;;18.20;;
70683;SDS011;58263;48.146;11.440;2023-03-04T03:35:53;41.78;;;17.90;;
70683;SDS011;58263;48.146;11.440;2023-03-04T03:38:18;41.60;;;19.77;;
70683;SDS011;58263;48.146;11.440;2023-03-04T03:40:44;44.57;;;19.30;;
70683;SDS011;58263;48.146;11.440;2023-03-04T03:43:09;40.43;;;19.47;;
70683;SDS011;58263;48.146;11.440;2023-03-04T03:45:35;41.83;;;18.13;;
70683;SDS011;58263;48.146;11.440;2023-03-04T03:48:00;37.30;;;17.70;;
70683;SDS011;58263;48.146;11.440;2023-03-04T03:50:25;36.30;;;18.40;;
70683;SDS011;58263;48.146;11.440;2023-03-04T03:52:52;34.80;;;16.30;;
70683;SDS011;58263;48.146;11.440;2023-03-04T03:55:18;37.83;;;17.08;;
70683;SDS011;58263;48.146;11.440;2023-03-04T03:57:43;41.40;;;19.80;;
70683;SDS011;58263;48.146;11.440;2023-03-04T04:00:09;41.77;;;18.70;;
70683;SDS011;58263;48.146;11.440;2023-03-04T04:02:34;40.85;;;18.75;;
70683;SDS011;58263;48.146;11.440;2023-03-04T04:05:00;37.97;;;17.73;;
70683;SDS011;58263;48.146;11.440;2023-03-04T04:07:25;38.50;;;16.20;;
70683;SDS011;58263;48.146;11.440;2023-03-04T04:09:51;41.17;;;18.02;;
70683;SDS011;58263;48.146;11.440;2023-03-04T04:12:17;39.00;;;17.85;;
70683;SDS011;58263;48.146;11.440;2023-03-04T04:14:42;41.78;;;17.48;;
70683;SDS011;58263;48.146;11.440;2023-03-04T04:17:08;39.03;;;18.27;;
70683;SDS011;58263;48.146;11.440;2023-03-04T04:19:33;37.53;;;17.77;;
70683;SDS011;58263;48.146;11.440;2023-03-04T04:21:59;39.25;;;17.92;;
70683;SDS011;58263;48.146;11.440;2023-03-04T04:24:24;37.60;;;17.63;;
70683;SDS011;58263;48.146;11.440;2023-03-04T04:26:50;35.20;;;17.55;;
70683;SDS011;58263;48.146;11.440;2023-03-04T04:29:15;34.85;;;16.10;;
70683;SDS011;58263;48.146;11.440;2023-03-04T04:31:42;40.40;;;18.77;;
70683;SDS011;58263;48.146;11.440;2023-03-04T04:34:07;37.57;;;17.30;;
70683;SDS011;58263;48.146;11.440;2023-03-04T04:36:33;36.93;;;18.00;;
70683;SDS011;58263;48.146;11.440;2023-03-04T04:38:58;38.70;;;16.93;;
70683;SDS011;58263;48.146;11.440;2023-03-04T04:41:25;37.50;;;18.02;;
70683;SDS011;58263;48.146;11.440;2023-03-04T04:43:53;36.20;;;18.02;;
70683;SDS011;58263;48.146;11.440;2023-03-04T04:46:19;38.53;;;16.88;;
70683;SDS011;58263;48.146;11.440;2023-03-04T04:48:45;39.22;;;16.33;;
70683;SDS011;58263;48.146;11.440;2023-03-04T04:51:11;35.20;;;17.37;;
70683;SDS011;58263;48.146;11.440;2023-03-04T04:53:36;33.08;;;15.73;;
70683;SDS011;58263;48.146;11.440;2023-03-04T04:56:09;37.28;;;17.23;;
70683;SDS011;58263;48.146;11.440;2023-03-04T04:58:36;35.75;;;17.77;;
70683;SDS011;58263;48.146;11.440;2023-03-04T05:01:02;39.25;;;17.70;;
70683;SDS011;58263;48.146;11.440;2023-03-04T05:03:28;38.38;;;18.83;;
70683;SDS011;58263;48.146;11.440;2023-03-04T05:05:54;37.17;;;17.17;;
70683;SDS011;58263;48.146;11.440;2023-03-04T05:08:19;33.13;;;16.47;;
70683;SDS011;58263;48.146;11.440;2023-03-04T05:10:44;40.77;;;18.03;;
70683;SDS011;58263;48.146;11.440;2023-03-04T05:13:10;36.67;;;17.20;;
70683;SDS011;58263;48.146;11.440;2023-03-04T05:15:36;35.73;;;16.90;;
70683;SDS011;58263;48.146;11.440;2023-03-04T05:18:02;35.85;;;17.45;;
70683;SDS011;58263;48.146;11.440;2023-03-04T05:20:27;37.72;;;16.90;;
70683;SDS011;58263;48.146;11.440;2023-03-04T05:22:53;35.17;;;16.17;;
70683;SDS011;58263;48.146;11.440;2023-03-04T05:25:18;36.55;;;17.52;;
70683;SDS011;58263;48.146;11.440;2023-03-04T05:27:44;40.33;;;17.67;;
70683;SDS011;58263;48.146;11.440;2023-03-04T05:30:09;37.90;;;17.00;;
70683;SDS011;58263;48.146;11.440;2023-03-04T05:32:35;40.40;;;17.75;;
70683;SDS011;58263;48.146;11.440;2023-03-04T05:35:00;36.57;;;17.17;;
70683;SDS011;58263;48.146;11.440;2023-03-04T05:37:26;33.67;;;15.50;;
70683;SDS011;58263;48.146;11.440;2023-03-04T05:39:51;36.90;;;17.27;;
70683;SDS011;58263;48.146;11.440;2023-03-04T05:42:16;40.97;;;17.70;;
70683;SDS011;58263;48.146;11.440;2023-03-04T05:44:41;38.20;;;17.10;;
70683;SDS011;58263;48.146;11.440;2023-03-04T05:47:07;34.97;;;17.60;;
70683;SDS011;58263;48.146;11.440;2023-03-04T05:49:32;38.13;;;17.97;;
70683;SDS011;58263;48.146;11.440;2023-03-04T05:51:57;34.83;;;16.10;;
70683;SDS011;58263;48.146;11.440;2023-03-04T05:54:23;37.07;;;17.13;;
70683;SDS011;58263;48.146;11.440;2023-03-04T05:56:48;35.57;;;15.70;;
70683;SDS011;58263;48.146;11.440;2023-03-04T05:59:13;33.87;;;17.43;;
70683;SDS011;58263;48.146;11.440;2023-03-04T06:01:44;35.30;;;16.50;;
70683;SDS011;58263;48.146;11.440;2023-03-04T06:04:10;34.45;;;16.38;;
70683;SDS011;58263;48.146;11.440;2023-03-04T06:06:35;36.65;;;16.75;;
70683;SDS011;58263;48.146;11.440;2023-03-04T06:09:00;35.40;;;16.63;;
70683;SDS011;58263;48.146;11.440;2023-03-04T06:11:25;36.13;;;16.93;;
70683;SDS011;58263;48.146;11.440;2023-03-04T06:13:51;36.43;;;16.47;;
70683;SDS011;58263;48.146;11.440;2023-03-04T06:16:16;33.53;;;16.37;;
70683;SDS011;58263;48.146;11.440;2023-03-04T06:18:41;32.37;;;15.90;;
70683;SDS011;58263;48.146;11.440;2023-03-04T06:21:07;40.43;;;18.27;;
70683;SDS011;58263;48.146;11.440;2023-03-04T06:23:32;34.47;;;16.03;;
70683;SDS011;58263;48.146;11.440;2023-03-04T06:25:58;33.23;;;16.07;;
70683;SDS011;58263;48.146;11.440;2023-03-04T06:28:24;34.28;;;16.30;;
70683;SDS011;58263;48.146;11.440;2023-03-04T06:30:53;31.03;;;16.40;;
70683;SDS011;58263;48.146;11.440;2023-03-04T06:33:20;34.95;;;16.08;;
70683;SDS011;58263;48.146;11.440;2023-03-04T06:35:46;36.47;;;16.67;;
70683;SDS011;58263;48.146;11.440;2023-03-04T06:38:11;34.80;;;16.30;;
70683;SDS011;58263;48.146;11.440;2023-03-04T06:40:37;37.77;;;18.53;;
70683;SDS011;58263;48.146;11.440;2023-03-04T06:43:05;37.50;;;17.65;;
70683;SDS011;58263;48.146;11.440;2023-03-04T06:45:30;35.78;;;16.85;;
70683;SDS011;58263;48.146;11.440;2023-03-04T06:47:55;42.70;;;20.40;;
70683;SDS011;58263;48.146;11.440;2023-03-04T06:50:21;39.50;;;19.92;;
70683;SDS011;58263;48.146;11.440;2023-03-04T06:52:46;40.23;;;18.60;;
70683;SDS011;58263;48.146;11.440;2023-03-04T06:55:13;45.58;;;21.15;;
70683;SDS011;58263;48.146;11.440;2023-03-04T06:57:38;40.42;;;19.38;;
70683;SDS011;58263;48.146;11.440;2023-03-04T07:00:04;41.37;;;19.40;;
70683;SDS011;58263;48.146;11.440;2023-03-04T07:02:30;37.78;;;19.17;;
70683;SDS011;58263;48.146;11.440;2023-03-04T07:04:55;43.03;;;19.00;;
70683;SDS011;58263;48.146;11.440;2023-03-04T07:07:20;41.23;;;19.40;;
70683;SDS011;58263;48.146;11.440;2023-03-04T07:09:46;37.60;;;18.52;;
70683;SDS011;58263;48.146;11.440;2023-03-04T07:12:11;35.70;;;17.23;;
70683;SDS011;58263;48.146;11.440;2023-03-04T07:14:36;38.90;;;19.37;;
70683;SDS011;58263;48.146;11.440;2023-03-04T07:17:01;39.87;;;18.23;;
70683;SDS011;58263;48.146;11.440;2023-03-04T07:19:27;37.20;;;16.95;;
70683;SDS011;58263;48.146;11.440;2023-03-04T07:21:52;40.43;;;18.60;;
70683;SDS011;58263;48.146;11.440;2023-03-04T07:24:18;33.83;;;17.77;;
70683;SDS011;58263;48.146;11.440;2023-03-04T07:26:43;35.60;;;17.63;;
70683;SDS011;58263;48.146;11.440;2023-03-04T07:29:08;37.73;;;18.07;;
70683;SDS011;58263;48.146;11.440;2023-03-04T07:31:34;39.50;;;19.38;;
70683;SDS011;58263;48.146;11.440;2023-03-04T07:34:02;43.42;;;20.20;;
70683;SDS011;58263;48.146;11.440;2023-03-04T07:36:32;40.38;;;17.98;;
70683;SDS011;58263;48.146;11.440;2023-03-04T07:38:59;43.47;;;18.35;;
70683;SDS011;58263;48.146;11.440;2023-03-04T07:41:25;40.92;;;18.48;;
70683;SDS011;58263;48.146;11.440;2023-03-04T07:43:51;37.10;;;17.45;;
70683;SDS011;58263;48.146;11.440;2023-03-04T07:46:17;39.00;;;17.77;;
70683;SDS011;58263;48.146;11.440;2023-03-04T07:48:43;42.13;;;19.33;;
70683;SDS011;58263;48.146;11.440;2023-03-04T07:51:10;36.65;;;18.48;;
70683;SDS011;58263;48.146;11.440;2023-03-04T07:53:41;38.67;;;17.83;;
70683;SDS011;58263;48.146;11.440;2023-03-04T07:56:10;45.50;;;19.88;;
70683;SDS011;58263;48.146;11.440;2023-03-04T07:58:37;41.17;;;19.73;;
70683;SDS011;58263;48.146;11.440;2023-03-04T08:01:13;34.10;;;18.73;;
70683;SDS011;58263;48.146;11.440;2023-03-04T08:03:41;38.70;;;17.73;;
70683;SDS011;58263;48.146;11.440;2023-03-04T08:06:07;43.47;;;18.58;;
70683;SDS011;58263;48.146;11.440;2023-03-04T08:08:33;40.72;;;18.40;;
70683;SDS011;58263;48.146;11.440;2023-03-04T08:10:59;41.67;;;17.92;;
70683;SDS011;58263;48.146;11.440;2023-03-04T08:13:27;38.17;;;17.95;;
70683;SDS011;58263;48.146;11.440;2023-03-04T08:15:54;50.63;;;21.17;;
70683;SDS011;58263;48.146;11.440;2023-03-04T08:18:20;39.88;;;18.98;;
70683;SDS011;58263;48.146;11.440;2023-03-04T08:20:45;40.25;;;18.58;;
70683;SDS011;58263;48.146;11.440;2023-03-04T08:23:11;37.80;;;18.20;;
70683;SDS011;58263;48.146;11.440;2023-03-04T08:25:39;41.83;;;18.80;;
70683;SDS011;58263;48.146;11.440;2023-03-04T08:28:06;40.78;;;19.63;;
70683;SDS011;58263;48.146;11.440;2023-03-04T08:30:33;37.20;;;18.83;;
70683;SDS011;58263;48.146;11.440;2023-03-04T08:32:59;39.90;;;17.50;;
70683;SDS011;58263;48.146;11.440;2023-03-04T08:35:26;36.22;;;17.50;;
70683;SDS011;58263;48.146;11.440;2023-03-04T08:37:51;36.77;;;20.60;;
70683;SDS011;58263;48.146;11.440;2023-03-04T08:40:16;49.83;;;23.67;;
70683;SDS011;58263;48.146;11.440;2023-03-04T08:42:42;36.42;;;19.30;;
70683;SDS011;58263;48.146;11.440;2023-03-04T08:45:08;42.88;;;18.95;;
70683;SDS011;58263;48.146;11.440;2023-03-04T08:47:34;41.15;;;18.45;;
70683;SDS011;58263;48.146;11.440;2023-03-04T08:49:59;39.65;;;19.33;;
70683;SDS011;58263;48.146;11.440;2023-03-04T08:52:24;37.00;;;17.50;;
70683;SDS011;58263;48.146;11.440;2023-03-04T08:54:50;35.40;;;18.05;;
70683;SDS011;58263;48.146;11.440;2023-03-04T08:57:15;41.23;;;18.30;;
70683;SDS011;58263;48.146;11.440;2023-03-04T08:59:41;38.67;;;19.33;;
70683;SDS011;58263;48.146;11.440;2023-03-04T09:02:06;36.77;;;18.27;;
70683;SDS011;58263;48.146;11.440;2023-03-04T09:04:31;36.70;;;17.23;;
70683;SDS011;58263;48.146;11.440;2023-03-04T09:06:57;38.47;;;18.70;;
70683;SDS011;58263;48.146;11.440;2023-03-04T09:09:22;35.63;;;19.40;;
70683;SDS011;58263;48.146;11.440;2023-03-04T09:11:47;34.40;;;17.23;;
70683;SDS011;58263;48.146;11.440;2023-03-04T09:14:13;37.15;;;18.55;;
70683;SDS011;58263;48.146;11.440;2023-03-04T09:16:39;31.70;;;17.15;;
70683;SDS011;58263;48.146;11.440;2023-03-04T09:19:04;38.47;;;18.10;;
70683;SDS011;58263;48.146;11.440;2023-03-04T09:21:29;38.67;;;18.20;;
70683;SDS011;58263;48.146;11.440;2023-03-04T09:23:55;42.03;;;19.63;;
70683;SDS011;58263;48.146;11.440;2023-03-04T09:26:21;35.00;;;18.03;;
70683;SDS011;58263;48.146;11.440;2023-03-04T09:28:51;36.15;;;19.10;;
70683;SDS011;58263;48.146;11.440;2023-03-04T09:31:17;36.78;;;17.13;;
70683;SDS011;58263;48.146;11.440;2023-03-04T09:33:43;31.83;;;16.33;;
70683;SDS011;58263;48.146;11.440;2023-03-04T09:36:09;30.77;;;16.05;;
70683;SDS011;58263;48.146;11.440;2023-03-04T09:38:36;32.55;;;17.38;;
70683;SDS011;58263;48.146;11.440;2023-03-04T09:41:15;44.75;;;20.08;;
70683;SDS011;58263;48.146;11.440;2023-03-04T09:43:43;44.70;;;17.45;;
70683;SDS011;58263;48.146;11.440;2023-03-04T09:46:11;32.13;;;16.08;;
70683;SDS011;58263;48.146;11.440;2023-03-04T09:48:47;30.83;;;16.05;;
70683;SDS011;58263;48.146;11.440;2023-03-04T09:51:19;35.42;;;17.95;;
70683;SDS011;58263;48.146;11.440;2023-03-04T09:56:34;37.72;;;18.17;;
70683;SDS011;58263;48.146;11.440;2023-03-04T09:59:04;34.13;;;18.08;;
70683;SDS011;58263;48.146;11.440;2023-03-04T10:04:28;31.27;;;16.42;;
70683;SDS011;58263;48.146;11.440;2023-03-04T10:06:54;34.25;;;16.92;;
70683;SDS011;58263;48.146;11.440;2023-03-04T10:09:22;27.98;;;14.45;;
70683;SDS011;58263;48.146;11.440;2023-03-04T10:17:23;24.75;;;14.00;;
70683;SDS011;58263;48.146;11.440;2023-03-04T10:19:58;26.40;;;13.85;;
70683;SDS011;58263;48.146;11.440;2023-03-04T10:22:36;25.55;;;13.65;;
70683;SDS011;58263;48.146;11.440;2023-03-04T10:25:13;26.13;;;13.77;;
70683;SDS011;58263;48.146;11.440;2023-03-04T10:27:47;28.38;;;13.75;;
70683;SDS011;58263;48.146;11.440;2023-03-04T10:33:27;26.85;;;14.52;;
70683;SDS011;58263;48.146;11.440;2023-03-04T10:38:28;26.63;;;14.75;;
70683;SDS011;58263;48.146;11.440;2023-03-04T10:40:56;24.38;;;13.90;;
70683;SDS011;58263;48.146;11.440;2023-03-04T10:43:22;26.48;;;13.60;;
70683;SDS011;58263;48.146;11.440;2023-03-04T10:45:48;26.05;;;13.35;;
70683;SDS011;58263;48.146;11.440;2023-03-04T10:48:20;26.63;;;13.88;;
70683;SDS011;58263;48.146;11.440;2023-03-04T10:50:49;25.85;;;14.60;;
70683;SDS011;58263;48.146;11.440;2023-03-04T10:53:31;28.08;;;14.02;;
70683;SDS011;58263;48.146;11.440;2023-03-04T10:58:27;22.80;;;13.48;;
70683;SDS011;58263;48.146;11.440;2023-03-04T11:01:00;24.70;;;14.57;;
70683;SDS011;58263;48.146;11.440;2023-03-04T11:08:42;24.67;;;16.00;;
70683;SDS011;58263;48.146;11.440;2023-03-04T11:13:59;24.60;;;15.68;;
70683;SDS011;58263;48.146;11.440;2023-03-04T11:16:29;24.52;;;16.60;;
70683;SDS011;58263;48.146;11.440;2023-03-04T11:19:02;25.02;;;17.80;;
70683;SDS011;58263;48.146;11.440;2023-03-04T11:21:31;25.55;;;16.85;;
70683;SDS011;58263;48.146;11.440;2023-03-04T11:24:03;27.15;;;18.88;;
70683;SDS011;58263;48.146;11.440;2023-03-04T11:26:34;26.85;;;18.02;;
70683;SDS011;58263;48.146;11.440;2023-03-04T11:35:12;25.33;;;17.13;;
70683;SDS011;58263;48.146;11.440;2023-03-04T11:37:47;23.33;;;17.85;;
70683;SDS011;58263;48.146;11.440;2023-03-04T11:40:20;23.55;;;17.90;;
70683;SDS011;58263;48.146;11.440;2023-03-04T11:45:27;26.17;;;19.17;;
70683;SDS011;58263;48.146;11.440;2023-03-04T11:53:38;25.00;;;17.45;;
70683;SDS011;58263;48.146;11.440;2023-03-04T12:04:35;24.50;;;16.95;;
70683;SDS011;58263;48.146;11.440;2023-03-04T12:07:20;22.70;;;16.98;;
70683;SDS011;58263;48.146;11.440;2023-03-04T12:09:56;26.75;;;17.42;;
70683;SDS011;58263;48.146;11.440;2023-03-04T12:21:30;24.73;;;16.88;;
70683;SDS011;58263;48.146;11.440;2023-03-04T12:27:19;26.90;;;17.27;;
70683;SDS011;58263;48.146;11.440;2023-03-04T12:29:58;21.35;;;16.08;;
70683;SDS011;58263;48.146;11.440;2023-03-04T12:38:20;21.67;;;16.52;;
70683;SDS011;58263;48.146;11.440;2023-03-04T12:46:31;21.15;;;15.35;;
70683;SDS011;58263;48.146;11.440;2023-03-04T12:49:17;20.95;;;15.50;;
70683;SDS011;58263;48.146;11.440;2023-03-04T12:51:59;20.85;;;15.82;;
70683;SDS011;58263;48.146;11.440;2023-03-04T12:54:39;22.80;;;15.88;;
70683;SDS011;58263;48.146;11.440;2023-03-04T12:57:14;23.40;;;16.92;;
70683;SDS011;58263;48.146;11.440;2023-03-04T12:59:43;24.55;;;16.30;;
70683;SDS011;58263;48.146;11.440;2023-03-04T13:02:30;23.10;;;15.82;;
70683;SDS011;58263;48.146;11.440;2023-03-04T13:07:40;22.90;;;15.05;;
70683;SDS011;58263;48.146;11.440;2023-03-04T13:10:13;26.70;;;13.93;;
70683;SDS011;58263;48.146;11.440;2023-03-04T13:12:45;20.67;;;14.43;;
70683;SDS011;58263;48.146;11.440;2023-03-04T13:15:35;20.95;;;14.18;;
70683;SDS011;58263;48.146;11.440;2023-03-04T13:18:29;18.80;;;12.73;;
70683;SDS011;58263;48.146;11.440;2023-03-04T13:21:07;21.55;;;13.65;;
70683;SDS011;58263;48.146;11.440;2023-03-04T13:23:44;19.15;;;13.65;;
70683;SDS011;58263;48.146;11.440;2023-03-04T13:32:04;21.20;;;14.90;;
70683;SDS011;58263;48.146;11.440;2023-03-04T13:34:47;21.20;;;14.77;;
70683;SDS011;58263;48.146;11.440;2023-03-04T13:37:28;21.10;;;14.13;;
70683;SDS011;58263;48.146;11.440;2023-03-04T13:42:44;22.45;;;15.65;;
70683;SDS011;58263;48.146;11.440;2023-03-04T13:47:57;21.75;;;14.15;;
70683;SDS011;58263;48.146;11.440;2023-03-04T13:50:33;19.63;;;14.68;;
70683;SDS011;58263;48.146;11.440;2023-03-04T13:56:26;21.20;;;13.77;;
70683;SDS011;58263;48.146;11.440;2023-03-04T13:58:45;21.10;;;13.23;;
70683;SDS011;58263;48.146;11.440;2023-03-04T14:01:35;20.90;;;13.38;;
70683;SDS011;58263;48.146;11.440;2023-03-04T14:04:55;22.30;;;13.73;;
70683;SDS011;58263;48.146;11.440;2023-03-04T14:06:59;20.08;;;12.35;;
70683;SDS011;58263;48.146;11.440;2023-03-04T14:09:31;21.55;;;12.75;;
70683;SDS011;58263;48.146;11.440;2023-03-04T14:11:59;19.20;;;12.77;;
70683;SDS011;58263;48.146;11.440;2023-03-04T14:14:29;18.17;;;12.30;;
70683;SDS011;58263;48.146;11.440;2023-03-04T14:17:00;20.13;;;12.20;;
70683;SDS011;58263;48.146;11.440;2023-03-04T14:19:29;18.95;;;12.80;;
70683;SDS011;58263;48.146;11.440;2023-03-04T14:21:58;17.63;;;11.52;;
70683;SDS011;58263;48.146;11.440;2023-03-04T14:24:24;18.23;;;12.00;;
70683;SDS011;58263;48.146;11.440;2023-03-04T14:27:02;18.38;;;12.00;;
70683;SDS011;58263;48.146;11.440;2023-03-04T14:29:35;18.25;;;11.20;;
70683;SDS011;58263;48.146;11.440;2023-03-04T14:32:01;21.02;;;12.40;;
70683;SDS011;58263;48.146;11.440;2023-03-04T14:34:29;18.75;;;11.77;;
70683;SDS011;58263;48.146;11.440;2023-03-04T14:36:57;18.10;;;11.90;;
70683;SDS011;58263;48.146;11.440;2023-03-04T14:39:24;18.02;;;10.93;;
70683;SDS011;58263;48.146;11.440;2023-03-04T14:41:54;17.88;;;11.43;;
70683;SDS011;58263;48.146;11.440;2023-03-04T14:46:52;19.30;;;11.17;;
70683;SDS011;58263;48.146;11.440;2023-03-04T14:49:21;16.38;;;10.10;;
70683;SDS011;58263;48.146;11.440;2023-03-04T14:51:48;18.70;;;10.85;;
70683;SDS011;58263;48.146;11.440;2023-03-04T14:54:28;17.15;;;10.27;;
70683;SDS011;58263;48.146;11.440;2023-03-04T14:57:27;18.33;;;10.00;;
70683;SDS011;58263;48.146;11.440;2023-03-04T14:59:53;15.48;;;9.65;;
70683;SDS011;58263;48.146;11.440;2023-03-04T15:04:47;18.98;;;10.90;;
70683;SDS011;58263;48.146;11.440;2023-03-04T15:07:17;16.42;;;9.68;;
70683;SDS011;58263;48.146;11.440;2023-03-04T15:09:49;18.52;;;10.15;;
70683;SDS011;58263;48.146;11.440;2023-03-04T15:12:21;16.52;;;9.80;;
70683;SDS011;58263;48.146;11.440;2023-03-04T15:14:49;20.33;;;9.70;;
70683;SDS011;58263;48.146;11.440;2023-03-04T15:22:29;17.13;;;9.38;;
70683;SDS011;58263;48.146;11.440;2023-03-04T15:24:55;19.60;;;9.38;;
70683;SDS011;58263;48.146;11.440;2023-03-04T15:27:21;18.02;;;9.07;;
70683;SDS011;58263;48.146;11.440;2023-03-04T15:29:51;17.98;;;10.23;;
70683;SDS011;58263;48.146;11.440;2023-03-04T15:32:20;17.58;;;9.05;;
70683;SDS011;58263;48.146;11.440;2023-03-04T15:34:46;18.52;;;9.90;;
70683;SDS011;58263;48.146;11.440;2023-03-04T15:37:13;15.23;;;9.10;;
70683;SDS011;58263;48.146;11.440;2023-03-04T15:39:44;18.70;;;10.07;;
70683;SDS011;58263;48.146;11.440;2023-03-04T15:42:10;19.43;;;9.93;;
70683;SDS011;58263;48.146;11.440;2023-03-04T15:44:37;16.85;;;9.18;;
70683;SDS011;58263;48.146;11.440;2023-03-04T15:47:02;20.70;;;10.53;;
70683;SDS011;58263;48.146;11.440;2023-03-04T15:49:27;17.70;;;9.98;;
70683;SDS011;58263;48.146;11.440;2023-03-04T15:51:53;19.98;;;10.00;;
70683;SDS011;58263;48.146;11.440;2023-03-04T15:54:19;15.20;;;9.02;;
70683;SDS011;58263;48.146;11.440;2023-03-04T15:56:47;21.10;;;10.57;;